sensor_id;sensor_type;location;lat;lon;timestamp;P1;durP1;ratioP1;P2;durP2;ratioP2
10761;SDS011;5433;50.862;4.320;2023-04-24T00:00:30;16.65;;;11.60;;
10761;SDS011;5433;50.862;4.320;2023-04-24T00:02:56;16.00;;;11.32;;
10761;SDS011;5433;50.862;4.320;2023-04-24T00:05:23;15.43;;;11.20;;
10761;SDS011;5433;50.862;4.320;2023-04-24T00:07:49;20.05;;;11.18;;
10761;SDS011;5433;50.862;4.320;2023-04-24T00:10:19;21.10;;;12.10;;
10761;SDS011;5433;50.862;4.320;2023-04-24T00:12:45;18.25;;;12.07;;
10761;SDS011;5433;50.862;4.320;2023-04-24T00:15:12;18.65;;;11.82;;
10761;SDS011;5433;50.862;4.320;2023-04-24T00:17:38;21.23;;;12.25;;
10761;SDS011;5433;50.862;4.320;2023-04-24T00:20:05;16.17;;;11.15;;
10761;SDS011;5433;50.862;4.320;2023-04-24T00:22:32;16.60;;;12.15;;
10761;SDS011;5433;50.862;4.320;2023-04-24T00:24:58;15.20;;;11.80;;
10761;SDS011;5433;50.862;4.320;2023-04-24T00:27:24;16.92;;;12.13;;
10761;SDS011;5433;50.862;4.320;2023-04-24T00:29:51;17.15;;;11.60;;
10761;SDS011;5433;50.862;4.320;2023-04-24T00:32:17;20.52;;;12.07;;
10761;SDS011;5433;50.862;4.320;2023-04-24T00:34:43;19.15;;;12.20;;
10761;SDS011;5433;50.862;4.320;2023-04-24T00:37:09;20.70;;;12.45;;
10761;SDS011;5433;50.862;4.320;2023-04-24T00:39:36;20.13;;;12.77;;
10761;SDS011;5433;50.862;4.320;2023-04-24T00:42:02;17.95;;;12.48;;
10761;SDS011;5433;50.862;4.320;2023-04-24T00:44:31;16.92;;;12.25;;
10761;SDS011;5433;50.862;4.320;2023-04-24T00:46:57;16.00;;;12.60;;
10761;SDS011;5433;50.862;4.320;2023-04-24T00:49:25;19.23;;;12.70;;
10761;SDS011;5433;50.862;4.320;2023-04-24T00:51:51;19.48;;;12.75;;
10761;SDS011;5433;50.862;4.320;2023-04-24T00:54:17;15.45;;;12.18;;
10761;SDS011;5433;50.862;4.320;2023-04-24T00:56:43;20.00;;;12.63;;
10761;SDS011;5433;50.862;4.320;2023-04-24T00:59:11;19.17;;;12.55;;
10761;SDS011;5433;50.862;4.320;2023-04-24T01:01:37;16.90;;;12.13;;
10761;SDS011;5433;50.862;4.320;2023-04-24T01:04:06;19.00;;;12.45;;
10761;SDS011;5433;50.862;4.320;2023-04-24T01:06:33;19.95;;;12.55;;
10761;SDS011;5433;50.862;4.320;2023-04-24T01:08:59;17.77;;;12.75;;
10761;SDS011;5433;50.862;4.320;2023-04-24T01:11:25;19.67;;;13.13;;
10761;SDS011;5433;50.862;4.320;2023-04-24T01:13:52;21.73;;;13.13;;
10761;SDS011;5433;50.862;4.320;2023-04-24T01:16:18;19.90;;;13.07;;
10761;SDS011;5433;50.862;4.320;2023-04-24T01:18:47;18.95;;;13.07;;
10761;SDS011;5433;50.862;4.320;2023-04-24T01:21:14;24.48;;;13.95;;
10761;SDS011;5433;50.862;4.320;2023-04-24T01:23:46;19.17;;;12.70;;
10761;SDS011;5433;50.862;4.320;2023-04-24T01:26:14;16.98;;;11.90;;
10761;SDS011;5433;50.862;4.320;2023-04-24T01:28:40;17.98;;;11.73;;
10761;SDS011;5433;50.862;4.320;2023-04-24T01:31:06;18.45;;;12.40;;
10761;SDS011;5433;50.862;4.320;2023-04-24T01:33:32;18.83;;;12.65;;
10761;SDS011;5433;50.862;4.320;2023-04-24T01:35:58;19.90;;;12.30;;
10761;SDS011;5433;50.862;4.320;2023-04-24T01:38:25;15.18;;;10.32;;
10761;SDS011;5433;50.862;4.320;2023-04-24T01:40:51;18.80;;;12.40;;
10761;SDS011;5433;50.862;4.320;2023-04-24T01:43:17;14.98;;;11.85;;
10761;SDS011;5433;50.862;4.320;2023-04-24T01:45:43;19.35;;;11.98;;
10761;SDS011;5433;50.862;4.320;2023-04-24T01:48:10;17.63;;;11.00;;
10761;SDS011;5433;50.862;4.320;2023-04-24T01:50:37;16.38;;;11.20;;
10761;SDS011;5433;50.862;4.320;2023-04-24T01:53:03;17.50;;;11.80;;
10761;SDS011;5433;50.862;4.320;2023-04-24T01:55:29;16.55;;;11.23;;
10761;SDS011;5433;50.862;4.320;2023-04-24T01:57:55;14.20;;;10.80;;
10761;SDS011;5433;50.862;4.320;2023-04-24T02:00:22;15.60;;;11.55;;
10761;SDS011;5433;50.862;4.320;2023-04-24T02:02:49;15.68;;;10.82;;
10761;SDS011;5433;50.862;4.320;2023-04-24T02:05:15;17.17;;;11.13;;
10761;SDS011;5433;50.862;4.320;2023-04-24T02:07:42;14.82;;;11.25;;
10761;SDS011;5433;50.862;4.320;2023-04-24T02:10:08;15.45;;;11.32;;
10761;SDS011;5433;50.862;4.320;2023-04-24T02:12:34;15.98;;;11.40;;
10761;SDS011;5433;50.862;4.320;2023-04-24T02:15:00;16.02;;;11.55;;
10761;SDS011;5433;50.862;4.320;2023-04-24T02:17:26;14.88;;;11.40;;
10761;SDS011;5433;50.862;4.320;2023-04-24T02:19:52;16.15;;;12.15;;
10761;SDS011;5433;50.862;4.320;2023-04-24T02:22:18;14.55;;;12.45;;
10761;SDS011;5433;50.862;4.320;2023-04-24T02:24:50;16.67;;;11.23;;
10761;SDS011;5433;50.862;4.320;2023-04-24T02:27:16;15.43;;;11.93;;
10761;SDS011;5433;50.862;4.320;2023-04-24T02:29:42;14.23;;;10.95;;
10761;SDS011;5433;50.862;4.320;2023-04-24T02:32:08;16.30;;;10.80;;
10761;SDS011;5433;50.862;4.320;2023-04-24T02:34:37;15.05;;;11.15;;
10761;SDS011;5433;50.862;4.320;2023-04-24T02:37:03;13.55;;;10.95;;
10761;SDS011;5433;50.862;4.320;2023-04-24T02:39:29;14.45;;;11.57;;
10761;SDS011;5433;50.862;4.320;2023-04-24T02:41:55;17.02;;;11.25;;
10761;SDS011;5433;50.862;4.320;2023-04-24T02:44:21;17.48;;;11.82;;
10761;SDS011;5433;50.862;4.320;2023-04-24T02:46:48;18.50;;;11.32;;
10761;SDS011;5433;50.862;4.320;2023-04-24T02:49:14;18.00;;;11.18;;
10761;SDS011;5433;50.862;4.320;2023-04-24T02:51:40;15.80;;;12.10;;
10761;SDS011;5433;50.862;4.320;2023-04-24T02:54:07;15.55;;;11.48;;
10761;SDS011;5433;50.862;4.320;2023-04-24T02:56:34;13.73;;;10.57;;
10761;SDS011;5433;50.862;4.320;2023-04-24T02:59:00;15.93;;;11.48;;
10761;SDS011;5433;50.862;4.320;2023-04-24T03:01:26;17.13;;;11.55;;
10761;SDS011;5433;50.862;4.320;2023-04-24T03:03:52;14.80;;;11.45;;
10761;SDS011;5433;50.862;4.320;2023-04-24T03:06:18;16.75;;;11.70;;
10761;SDS011;5433;50.862;4.320;2023-04-24T03:08:45;13.88;;;10.95;;
10761;SDS011;5433;50.862;4.320;2023-04-24T03:11:12;15.40;;;10.55;;
10761;SDS011;5433;50.862;4.320;2023-04-24T03:13:38;13.65;;;10.55;;
10761;SDS011;5433;50.862;4.320;2023-04-24T03:16:04;15.48;;;10.20;;
10761;SDS011;5433;50.862;4.320;2023-04-24T03:18:30;14.60;;;10.63;;
10761;SDS011;5433;50.862;4.320;2023-04-24T03:20:56;15.27;;;10.73;;
10761;SDS011;5433;50.862;4.320;2023-04-24T03:23:22;11.57;;;10.27;;
10761;SDS011;5433;50.862;4.320;2023-04-24T03:25:49;12.23;;;9.77;;
10761;SDS011;5433;50.862;4.320;2023-04-24T03:28:15;14.68;;;10.57;;
10761;SDS011;5433;50.862;4.320;2023-04-24T03:30:41;14.50;;;10.13;;
10761;SDS011;5433;50.862;4.320;2023-04-24T03:33:07;13.48;;;9.85;;
10761;SDS011;5433;50.862;4.320;2023-04-24T03:35:33;13.00;;;9.82;;
10761;SDS011;5433;50.862;4.320;2023-04-24T03:37:59;12.82;;;9.23;;
10761;SDS011;5433;50.862;4.320;2023-04-24T03:40:25;15.25;;;9.50;;
10761;SDS011;5433;50.862;4.320;2023-04-24T03:42:53;12.98;;;9.27;;
10761;SDS011;5433;50.862;4.320;2023-04-24T03:45:19;12.70;;;9.32;;
10761;SDS011;5433;50.862;4.320;2023-04-24T03:47:45;10.85;;;8.98;;
10761;SDS011;5433;50.862;4.320;2023-04-24T03:50:11;11.27;;;8.20;;
10761;SDS011;5433;50.862;4.320;2023-04-24T03:52:37;9.05;;;7.80;;
10761;SDS011;5433;50.862;4.320;2023-04-24T03:55:03;11.23;;;8.32;;
10761;SDS011;5433;50.862;4.320;2023-04-24T03:57:29;11.15;;;8.18;;
10761;SDS011;5433;50.862;4.320;2023-04-24T03:59:56;9.13;;;7.72;;
10761;SDS011;5433;50.862;4.320;2023-04-24T04:02:22;9.15;;;7.95;;
10761;SDS011;5433;50.862;4.320;2023-04-24T04:04:48;11.35;;;8.00;;
10761;SDS011;5433;50.862;4.320;2023-04-24T04:07:14;10.10;;;7.63;;
10761;SDS011;5433;50.862;4.320;2023-04-24T04:09:40;9.68;;;7.57;;
10761;SDS011;5433;50.862;4.320;2023-04-24T04:12:06;11.95;;;8.00;;
10761;SDS011;5433;50.862;4.320;2023-04-24T04:14:32;9.85;;;7.60;;
10761;SDS011;5433;50.862;4.320;2023-04-24T04:16:58;9.98;;;7.82;;
10761;SDS011;5433;50.862;4.320;2023-04-24T04:19:24;8.82;;;7.38;;
10761;SDS011;5433;50.862;4.320;2023-04-24T04:21:50;8.00;;;7.18;;
10761;SDS011;5433;50.862;4.320;2023-04-24T04:24:21;10.27;;;7.28;;
10761;SDS011;5433;50.862;4.320;2023-04-24T04:26:47;8.57;;;7.13;;
10761;SDS011;5433;50.862;4.320;2023-04-24T04:29:16;10.82;;;7.35;;
10761;SDS011;5433;50.862;4.320;2023-04-24T04:31:43;9.50;;;6.90;;
10761;SDS011;5433;50.862;4.320;2023-04-24T04:34:09;10.13;;;6.95;;
10761;SDS011;5433;50.862;4.320;2023-04-24T04:36:36;11.90;;;6.90;;
10761;SDS011;5433;50.862;4.320;2023-04-24T04:39:05;7.78;;;7.03;;
10761;SDS011;5433;50.862;4.320;2023-04-24T04:41:31;9.13;;;7.63;;
10761;SDS011;5433;50.862;4.320;2023-04-24T04:44:00;12.20;;;8.73;;
10761;SDS011;5433;50.862;4.320;2023-04-24T04:46:26;9.65;;;7.95;;
10761;SDS011;5433;50.862;4.320;2023-04-24T04:48:53;10.38;;;8.65;;
10761;SDS011;5433;50.862;4.320;2023-04-24T04:51:19;11.98;;;9.13;;
10761;SDS011;5433;50.862;4.320;2023-04-24T04:53:45;13.77;;;10.05;;
10761;SDS011;5433;50.862;4.320;2023-04-24T04:56:11;15.68;;;10.77;;
10761;SDS011;5433;50.862;4.320;2023-04-24T04:58:38;16.38;;;11.70;;
10761;SDS011;5433;50.862;4.320;2023-04-24T05:01:04;14.88;;;11.45;;
10761;SDS011;5433;50.862;4.320;2023-04-24T05:03:31;17.10;;;12.45;;
10761;SDS011;5433;50.862;4.320;2023-04-24T05:05:57;16.73;;;12.40;;
10761;SDS011;5433;50.862;4.320;2023-04-24T05:08:24;17.70;;;12.38;;
10761;SDS011;5433;50.862;4.320;2023-04-24T05:10:50;20.55;;;12.55;;
10761;SDS011;5433;50.862;4.320;2023-04-24T05:13:16;18.27;;;13.25;;
10761;SDS011;5433;50.862;4.320;2023-04-24T05:15:44;16.30;;;12.00;;
10761;SDS011;5433;50.862;4.320;2023-04-24T05:18:10;16.65;;;12.68;;
10761;SDS011;5433;50.862;4.320;2023-04-24T05:20:36;19.30;;;12.30;;
10761;SDS011;5433;50.862;4.320;2023-04-24T05:23:02;18.52;;;12.90;;
10761;SDS011;5433;50.862;4.320;2023-04-24T05:25:28;17.15;;;12.32;;
10761;SDS011;5433;50.862;4.320;2023-04-24T05:27:57;19.05;;;12.43;;
10761;SDS011;5433;50.862;4.320;2023-04-24T05:30:23;22.08;;;12.98;;
10761;SDS011;5433;50.862;4.320;2023-04-24T05:32:49;20.40;;;12.73;;
10761;SDS011;5433;50.862;4.320;2023-04-24T05:35:15;19.00;;;12.65;;
10761;SDS011;5433;50.862;4.320;2023-04-24T05:37:41;19.58;;;12.63;;
10761;SDS011;5433;50.862;4.320;2023-04-24T05:40:07;19.02;;;12.43;;
10761;SDS011;5433;50.862;4.320;2023-04-24T05:42:33;20.67;;;13.18;;
10761;SDS011;5433;50.862;4.320;2023-04-24T05:44:59;20.13;;;12.55;;
10761;SDS011;5433;50.862;4.320;2023-04-24T05:47:25;17.00;;;12.55;;
10761;SDS011;5433;50.862;4.320;2023-04-24T05:49:52;15.55;;;11.95;;
10761;SDS011;5433;50.862;4.320;2023-04-24T05:52:18;19.25;;;13.23;;
10761;SDS011;5433;50.862;4.320;2023-04-24T05:54:44;18.55;;;12.52;;
10761;SDS011;5433;50.862;4.320;2023-04-24T05:57:10;15.85;;;12.27;;
10761;SDS011;5433;50.862;4.320;2023-04-24T05:59:37;17.45;;;12.95;;
10761;SDS011;5433;50.862;4.320;2023-04-24T06:02:03;20.20;;;13.15;;
10761;SDS011;5433;50.862;4.320;2023-04-24T06:04:31;19.90;;;12.93;;
10761;SDS011;5433;50.862;4.320;2023-04-24T06:06:57;19.38;;;12.95;;
10761;SDS011;5433;50.862;4.320;2023-04-24T06:09:23;19.20;;;13.02;;
10761;SDS011;5433;50.862;4.320;2023-04-24T06:11:49;20.70;;;12.48;;
10761;SDS011;5433;50.862;4.320;2023-04-24T06:14:19;18.38;;;12.73;;
10761;SDS011;5433;50.862;4.320;2023-04-24T06:16:45;19.65;;;13.00;;
10761;SDS011;5433;50.862;4.320;2023-04-24T06:19:11;20.40;;;13.25;;
10761;SDS011;5433;50.862;4.320;2023-04-24T06:21:37;21.80;;;14.68;;
10761;SDS011;5433;50.862;4.320;2023-04-24T06:24:03;22.48;;;13.98;;
10761;SDS011;5433;50.862;4.320;2023-04-24T06:26:29;22.20;;;14.40;;
10761;SDS011;5433;50.862;4.320;2023-04-24T06:28:55;22.13;;;15.18;;
10761;SDS011;5433;50.862;4.320;2023-04-24T06:31:23;23.27;;;14.68;;
10761;SDS011;5433;50.862;4.320;2023-04-24T06:33:49;24.00;;;14.88;;
10761;SDS011;5433;50.862;4.320;2023-04-24T06:36:15;23.90;;;15.43;;
10761;SDS011;5433;50.862;4.320;2023-04-24T06:38:42;24.83;;;16.20;;
10761;SDS011;5433;50.862;4.320;2023-04-24T06:41:09;25.65;;;16.95;;
10761;SDS011;5433;50.862;4.320;2023-04-24T06:43:38;30.48;;;18.00;;
10761;SDS011;5433;50.862;4.320;2023-04-24T06:46:04;25.20;;;16.50;;
10761;SDS011;5433;50.862;4.320;2023-04-24T06:48:30;28.92;;;16.92;;
10761;SDS011;5433;50.862;4.320;2023-04-24T06:50:56;30.80;;;17.80;;
10761;SDS011;5433;50.862;4.320;2023-04-24T06:53:22;29.02;;;17.35;;
10761;SDS011;5433;50.862;4.320;2023-04-24T06:55:48;32.25;;;18.33;;
10761;SDS011;5433;50.862;4.320;2023-04-24T06:58:15;27.20;;;17.73;;
10761;SDS011;5433;50.862;4.320;2023-04-24T07:00:41;28.38;;;17.35;;
10761;SDS011;5433;50.862;4.320;2023-04-24T07:03:07;28.55;;;17.42;;
10761;SDS011;5433;50.862;4.320;2023-04-24T07:05:33;29.23;;;17.65;;
10761;SDS011;5433;50.862;4.320;2023-04-24T07:11:04;30.08;;;17.05;;
10761;SDS011;5433;50.862;4.320;2023-04-24T07:13:30;28.05;;;16.27;;
10761;SDS011;5433;50.862;4.320;2023-04-24T07:15:56;27.80;;;16.45;;
10761;SDS011;5433;50.862;4.320;2023-04-24T07:18:23;28.42;;;15.55;;
10761;SDS011;5433;50.862;4.320;2023-04-24T07:20:49;25.63;;;15.10;;
10761;SDS011;5433;50.862;4.320;2023-04-24T07:23:15;22.70;;;14.23;;
10761;SDS011;5433;50.862;4.320;2023-04-24T07:25:41;23.58;;;14.05;;
10761;SDS011;5433;50.862;4.320;2023-04-24T07:28:07;20.45;;;14.05;;
10761;SDS011;5433;50.862;4.320;2023-04-24T07:30:33;20.42;;;13.35;;
10761;SDS011;5433;50.862;4.320;2023-04-24T07:33:00;17.33;;;12.05;;
10761;SDS011;5433;50.862;4.320;2023-04-24T07:35:26;17.83;;;12.48;;
10761;SDS011;5433;50.862;4.320;2023-04-24T07:37:52;19.65;;;11.35;;
10761;SDS011;5433;50.862;4.320;2023-04-24T07:40:19;21.50;;;11.52;;
10761;SDS011;5433;50.862;4.320;2023-04-24T07:42:45;16.33;;;10.88;;
10761;SDS011;5433;50.862;4.320;2023-04-24T07:45:13;16.38;;;10.05;;
10761;SDS011;5433;50.862;4.320;2023-04-24T07:47:43;16.63;;;10.90;;
10761;SDS011;5433;50.862;4.320;2023-04-24T07:50:10;22.10;;;12.13;;
10761;SDS011;5433;50.862;4.320;2023-04-24T07:52:40;19.15;;;12.80;;
10761;SDS011;5433;50.862;4.320;2023-04-24T07:55:06;19.42;;;12.52;;
10761;SDS011;5433;50.862;4.320;2023-04-24T07:57:33;20.65;;;12.35;;
10761;SDS011;5433;50.862;4.320;2023-04-24T08:00:02;20.40;;;11.98;;
10761;SDS011;5433;50.862;4.320;2023-04-24T08:02:29;23.48;;;12.60;;
10761;SDS011;5433;50.862;4.320;2023-04-24T08:04:55;15.98;;;10.85;;
10761;SDS011;5433;50.862;4.320;2023-04-24T08:07:23;17.02;;;10.77;;
10761;SDS011;5433;50.862;4.320;2023-04-24T08:09:50;19.15;;;9.73;;
10761;SDS011;5433;50.862;4.320;2023-04-24T08:12:16;13.38;;;9.40;;
10761;SDS011;5433;50.862;4.320;2023-04-24T08:14:42;15.57;;;8.98;;
10761;SDS011;5433;50.862;4.320;2023-04-24T08:17:08;17.02;;;8.63;;
10761;SDS011;5433;50.862;4.320;2023-04-24T08:19:34;14.35;;;8.23;;
10761;SDS011;5433;50.862;4.320;2023-04-24T08:22:00;17.60;;;8.52;;
10761;SDS011;5433;50.862;4.320;2023-04-24T08:24:29;13.48;;;8.15;;
10761;SDS011;5433;50.862;4.320;2023-04-24T08:26:55;14.27;;;7.60;;
10761;SDS011;5433;50.862;4.320;2023-04-24T08:29:22;13.98;;;7.47;;
10761;SDS011;5433;50.862;4.320;2023-04-24T08:31:49;13.25;;;7.50;;
10761;SDS011;5433;50.862;4.320;2023-04-24T08:34:15;15.27;;;7.75;;
10761;SDS011;5433;50.862;4.320;2023-04-24T08:36:41;12.02;;;6.70;;
10761;SDS011;5433;50.862;4.320;2023-04-24T08:39:09;13.68;;;7.38;;
10761;SDS011;5433;50.862;4.320;2023-04-24T08:41:38;12.10;;;5.90;;
10761;SDS011;5433;50.862;4.320;2023-04-24T08:44:06;13.35;;;6.53;;
10761;SDS011;5433;50.862;4.320;2023-04-24T08:46:32;10.77;;;6.22;;
10761;SDS011;5433;50.862;4.320;2023-04-24T08:48:58;11.23;;;6.10;;
10761;SDS011;5433;50.862;4.320;2023-04-24T08:51:25;12.57;;;7.15;;
10761;SDS011;5433;50.862;4.320;2023-04-24T08:53:52;14.02;;;6.63;;
10761;SDS011;5433;50.862;4.320;2023-04-24T08:56:20;9.15;;;5.82;;
10761;SDS011;5433;50.862;4.320;2023-04-24T08:58:54;8.25;;;5.65;;
10761;SDS011;5433;50.862;4.320;2023-04-24T09:01:26;9.57;;;5.38;;
10761;SDS011;5433;50.862;4.320;2023-04-24T09:03:54;10.02;;;5.15;;
10761;SDS011;5433;50.862;4.320;2023-04-24T09:06:22;10.13;;;5.18;;
10761;SDS011;5433;50.862;4.320;2023-04-24T09:08:49;10.35;;;4.60;;
10761;SDS011;5433;50.862;4.320;2023-04-24T09:11:15;9.93;;;4.85;;
10761;SDS011;5433;50.862;4.320;2023-04-24T09:13:42;6.72;;;4.45;;
10761;SDS011;5433;50.862;4.320;2023-04-24T09:16:09;9.05;;;4.25;;
10761;SDS011;5433;50.862;4.320;2023-04-24T09:18:35;8.10;;;4.15;;
10761;SDS011;5433;50.862;4.320;2023-04-24T09:21:02;7.60;;;4.53;;
10761;SDS011;5433;50.862;4.320;2023-04-24T09:23:29;8.18;;;3.88;;
10761;SDS011;5433;50.862;4.320;2023-04-24T09:25:56;7.45;;;3.90;;
10761;SDS011;5433;50.862;4.320;2023-04-24T09:28:27;6.72;;;3.80;;
10761;SDS011;5433;50.862;4.320;2023-04-24T09:31:06;7.60;;;4.13;;
10761;SDS011;5433;50.862;4.320;2023-04-24T09:33:32;8.10;;;4.07;;
10761;SDS011;5433;50.862;4.320;2023-04-24T09:35:59;6.55;;;4.22;;
10761;SDS011;5433;50.862;4.320;2023-04-24T09:38:38;6.55;;;3.83;;
10761;SDS011;5433;50.862;4.320;2023-04-24T09:41:05;8.40;;;3.70;;
10761;SDS011;5433;50.862;4.320;2023-04-24T09:43:34;7.75;;;3.83;;
10761;SDS011;5433;50.862;4.320;2023-04-24T09:46:04;7.25;;;3.97;;
10761;SDS011;5433;50.862;4.320;2023-04-24T09:48:31;7.75;;;3.70;;
10761;SDS011;5433;50.862;4.320;2023-04-24T09:50:57;7.22;;;3.60;;
10761;SDS011;5433;50.862;4.320;2023-04-24T09:53:24;8.77;;;3.47;;
10761;SDS011;5433;50.862;4.320;2023-04-24T09:55:51;6.43;;;3.95;;
10761;SDS011;5433;50.862;4.320;2023-04-24T09:58:18;8.07;;;3.58;;
10761;SDS011;5433;50.862;4.320;2023-04-24T10:00:44;6.68;;;4.00;;
10761;SDS011;5433;50.862;4.320;2023-04-24T10:03:11;7.97;;;4.38;;
10761;SDS011;5433;50.862;4.320;2023-04-24T10:05:37;7.25;;;3.90;;
10761;SDS011;5433;50.862;4.320;2023-04-24T10:08:05;6.07;;;3.40;;
10761;SDS011;5433;50.862;4.320;2023-04-24T10:10:31;5.28;;;3.63;;
10761;SDS011;5433;50.862;4.320;2023-04-24T10:12:58;5.90;;;3.63;;
10761;SDS011;5433;50.862;4.320;2023-04-24T10:15:33;6.72;;;3.83;;
10761;SDS011;5433;50.862;4.320;2023-04-24T10:18:00;6.72;;;3.78;;
10761;SDS011;5433;50.862;4.320;2023-04-24T10:20:27;7.65;;;4.00;;
10761;SDS011;5433;50.862;4.320;2023-04-24T10:22:54;5.70;;;3.78;;
10761;SDS011;5433;50.862;4.320;2023-04-24T10:25:21;8.82;;;3.97;;
10761;SDS011;5433;50.862;4.320;2023-04-24T10:27:49;7.75;;;4.15;;
10761;SDS011;5433;50.862;4.320;2023-04-24T10:30:15;10.70;;;4.30;;
10761;SDS011;5433;50.862;4.320;2023-04-24T10:32:41;6.93;;;4.20;;
10761;SDS011;5433;50.862;4.320;2023-04-24T10:35:11;6.40;;;4.05;;
10761;SDS011;5433;50.862;4.320;2023-04-24T10:37:39;6.90;;;4.00;;
10761;SDS011;5433;50.862;4.320;2023-04-24T10:40:08;7.20;;;4.38;;
10761;SDS011;5433;50.862;4.320;2023-04-24T10:42:35;7.28;;;4.30;;
10761;SDS011;5433;50.862;4.320;2023-04-24T10:45:15;6.18;;;4.07;;
10761;SDS011;5433;50.862;4.320;2023-04-24T10:48:04;7.90;;;4.10;;
10761;SDS011;5433;50.862;4.320;2023-04-24T10:50:51;6.15;;;4.10;;
10761;SDS011;5433;50.862;4.320;2023-04-24T10:53:19;5.43;;;3.90;;
10761;SDS011;5433;50.862;4.320;2023-04-24T10:58:16;7.93;;;4.32;;
10761;SDS011;5433;50.862;4.320;2023-04-24T11:00:43;7.03;;;3.95;;
10761;SDS011;5433;50.862;4.320;2023-04-24T11:03:25;7.95;;;4.80;;
10761;SDS011;5433;50.862;4.320;2023-04-24T11:08:31;6.50;;;4.35;;
10761;SDS011;5433;50.862;4.320;2023-04-24T11:11:07;6.03;;;4.43;;
10761;SDS011;5433;50.862;4.320;2023-04-24T11:21:30;5.95;;;4.28;;
10761;SDS011;5433;50.862;4.320;2023-04-24T11:23:57;6.82;;;4.38;;
10761;SDS011;5433;50.862;4.320;2023-04-24T11:26:23;6.65;;;4.82;;
10761;SDS011;5433;50.862;4.320;2023-04-24T11:28:55;6.22;;;4.30;;
10761;SDS011;5433;50.862;4.320;2023-04-24T11:31:38;7.13;;;4.10;;
10761;SDS011;5433;50.862;4.320;2023-04-24T11:34:12;6.57;;;4.25;;
10761;SDS011;5433;50.862;4.320;2023-04-24T11:36:42;6.38;;;4.30;;
10761;SDS011;5433;50.862;4.320;2023-04-24T11:39:08;6.82;;;4.10;;
10761;SDS011;5433;50.862;4.320;2023-04-24T11:41:36;7.53;;;4.38;;
10761;SDS011;5433;50.862;4.320;2023-04-24T11:44:09;6.10;;;4.10;;
10761;SDS011;5433;50.862;4.320;2023-04-24T11:46:36;6.30;;;4.70;;
10761;SDS011;5433;50.862;4.320;2023-04-24T11:49:04;7.43;;;4.70;;
10761;SDS011;5433;50.862;4.320;2023-04-24T11:51:31;6.53;;;4.65;;
10761;SDS011;5433;50.862;4.320;2023-04-24T11:53:57;6.72;;;4.90;;
10761;SDS011;5433;50.862;4.320;2023-04-24T11:56:27;8.93;;;4.95;;
10761;SDS011;5433;50.862;4.320;2023-04-24T11:58:53;6.80;;;4.68;;
10761;SDS011;5433;50.862;4.320;2023-04-24T12:01:19;5.57;;;4.50;;
10761;SDS011;5433;50.862;4.320;2023-04-24T12:03:49;5.78;;;4.40;;
10761;SDS011;5433;50.862;4.320;2023-04-24T12:06:19;8.63;;;4.57;;
10761;SDS011;5433;50.862;4.320;2023-04-24T12:08:52;4.68;;;4.20;;
10761;SDS011;5433;50.862;4.320;2023-04-24T12:11:20;6.97;;;4.40;;
10761;SDS011;5433;50.862;4.320;2023-04-24T12:13:46;6.40;;;4.38;;
10761;SDS011;5433;50.862;4.320;2023-04-24T12:16:14;6.63;;;4.30;;
10761;SDS011;5433;50.862;4.320;2023-04-24T12:18:44;5.88;;;4.50;;
10761;SDS011;5433;50.862;4.320;2023-04-24T12:21:14;5.45;;;4.30;;
10761;SDS011;5433;50.862;4.320;2023-04-24T12:23:42;5.55;;;4.30;;
10761;SDS011;5433;50.862;4.320;2023-04-24T12:26:09;5.13;;;4.07;;
10761;SDS011;5433;50.862;4.320;2023-04-24T12:28:36;5.10;;;4.03;;
10761;SDS011;5433;50.862;4.320;2023-04-24T12:31:02;5.70;;;3.65;;
10761;SDS011;5433;50.862;4.320;2023-04-24T12:33:32;5.10;;;4.00;;
10761;SDS011;5433;50.862;4.320;2023-04-24T12:35:58;5.07;;;3.70;;
10761;SDS011;5433;50.862;4.320;2023-04-24T12:38:25;4.82;;;3.55;;
10761;SDS011;5433;50.862;4.320;2023-04-24T12:43:29;6.95;;;3.70;;
10761;SDS011;5433;50.862;4.320;2023-04-24T12:45:55;4.20;;;3.75;;
10761;SDS011;5433;50.862;4.320;2023-04-24T12:48:22;4.88;;;3.65;;
10761;SDS011;5433;50.862;4.320;2023-04-24T12:50:48;4.55;;;3.92;;
10761;SDS011;5433;50.862;4.320;2023-04-24T12:53:14;6.35;;;3.72;;
10761;SDS011;5433;50.862;4.320;2023-04-24T12:55:41;5.70;;;3.67;;
10761;SDS011;5433;50.862;4.320;2023-04-24T12:58:07;5.45;;;3.70;;
10761;SDS011;5433;50.862;4.320;2023-04-24T13:00:33;6.38;;;3.40;;
10761;SDS011;5433;50.862;4.320;2023-04-24T13:02:59;5.25;;;3.58;;
10761;SDS011;5433;50.862;4.320;2023-04-24T13:05:25;6.15;;;4.00;;
10761;SDS011;5433;50.862;4.320;2023-04-24T13:07:51;4.80;;;3.50;;
10761;SDS011;5433;50.862;4.320;2023-04-24T13:10:17;5.82;;;3.33;;
10761;SDS011;5433;50.862;4.320;2023-04-24T13:12:44;6.50;;;3.47;;
10761;SDS011;5433;50.862;4.320;2023-04-24T13:15:11;4.57;;;3.63;;
10761;SDS011;5433;50.862;4.320;2023-04-24T13:17:39;5.75;;;3.28;;
10761;SDS011;5433;50.862;4.320;2023-04-24T13:20:05;4.10;;;3.00;;
10761;SDS011;5433;50.862;4.320;2023-04-24T13:22:32;4.30;;;2.88;;
10761;SDS011;5433;50.862;4.320;2023-04-24T13:24:58;3.50;;;2.80;;
10761;SDS011;5433;50.862;4.320;2023-04-24T13:27:24;3.95;;;2.70;;
10761;SDS011;5433;50.862;4.320;2023-04-24T13:29:50;5.57;;;2.78;;
10761;SDS011;5433;50.862;4.320;2023-04-24T13:32:16;4.70;;;2.80;;
10761;SDS011;5433;50.862;4.320;2023-04-24T13:34:42;4.50;;;2.67;;
10761;SDS011;5433;50.862;4.320;2023-04-24T13:37:09;6.28;;;3.00;;
10761;SDS011;5433;50.862;4.320;2023-04-24T13:39:35;6.15;;;2.72;;
10761;SDS011;5433;50.862;4.320;2023-04-24T13:42:01;4.68;;;2.80;;
10761;SDS011;5433;50.862;4.320;2023-04-24T13:44:27;3.72;;;2.65;;
10761;SDS011;5433;50.862;4.320;2023-04-24T13:46:54;4.85;;;2.65;;
10761;SDS011;5433;50.862;4.320;2023-04-24T13:49:22;3.75;;;2.58;;
10761;SDS011;5433;50.862;4.320;2023-04-24T13:51:50;4.53;;;2.58;;
10761;SDS011;5433;50.862;4.320;2023-04-24T13:54:16;3.40;;;2.30;;
10761;SDS011;5433;50.862;4.320;2023-04-24T13:56:42;4.97;;;2.42;;
10761;SDS011;5433;50.862;4.320;2023-04-24T13:59:08;5.22;;;2.38;;
10761;SDS011;5433;50.862;4.320;2023-04-24T14:01:35;2.42;;;2.17;;
10761;SDS011;5433;50.862;4.320;2023-04-24T14:04:01;3.58;;;2.05;;
10761;SDS011;5433;50.862;4.320;2023-04-24T14:06:34;5.63;;;2.10;;
10761;SDS011;5433;50.862;4.320;2023-04-24T14:09:03;2.72;;;1.70;;
10761;SDS011;5433;50.862;4.320;2023-04-24T14:11:29;2.90;;;1.70;;
10761;SDS011;5433;50.862;4.320;2023-04-24T14:13:56;1.85;;;1.70;;
10761;SDS011;5433;50.862;4.320;2023-04-24T14:16:22;1.75;;;1.40;;
10761;SDS011;5433;50.862;4.320;2023-04-24T14:18:48;3.17;;;1.70;;
10761;SDS011;5433;50.862;4.320;2023-04-24T14:21:15;3.40;;;1.83;;
10761;SDS011;5433;50.862;4.320;2023-04-24T14:23:41;4.35;;;1.70;;
10761;SDS011;5433;50.862;4.320;2023-04-24T14:26:07;2.47;;;1.88;;
10761;SDS011;5433;50.862;4.320;2023-04-24T14:28:33;4.18;;;2.10;;
10761;SDS011;5433;50.862;4.320;2023-04-24T14:31:00;4.43;;;2.10;;
10761;SDS011;5433;50.862;4.320;2023-04-24T14:33:26;6.15;;;2.28;;
10761;SDS011;5433;50.862;4.320;2023-04-24T14:35:52;5.50;;;2.05;;
10761;SDS011;5433;50.862;4.320;2023-04-24T14:38:21;5.90;;;2.10;;
10761;SDS011;5433;50.862;4.320;2023-04-24T14:40:54;4.57;;;2.33;;
10761;SDS011;5433;50.862;4.320;2023-04-24T14:43:20;2.83;;;1.90;;
10761;SDS011;5433;50.862;4.320;2023-04-24T14:45:46;3.50;;;1.80;;
10761;SDS011;5433;50.862;4.320;2023-04-24T14:48:13;3.60;;;1.85;;
10761;SDS011;5433;50.862;4.320;2023-04-24T14:50:39;2.42;;;1.75;;
10761;SDS011;5433;50.862;4.320;2023-04-24T14:53:05;3.05;;;1.90;;
10761;SDS011;5433;50.862;4.320;2023-04-24T14:55:31;4.13;;;2.00;;
10761;SDS011;5433;50.862;4.320;2023-04-24T14:58:02;3.70;;;2.00;;
10761;SDS011;5433;50.862;4.320;2023-04-24T15:00:28;3.35;;;1.90;;
10761;SDS011;5433;50.862;4.320;2023-04-24T15:02:54;3.55;;;1.60;;
10761;SDS011;5433;50.862;4.320;2023-04-24T15:05:21;2.65;;;1.70;;